createdAt,value
2022-11-21T00:01:03.144Z,0.97
2022-11-21T00:03:52.599Z,0.83
2022-11-21T00:09:33.627Z,0.70
2022-11-21T00:15:07.020Z,0.80
2022-11-21T00:17:55.271Z,0.70
2022-11-21T00:20:44.250Z,0.90
2022-11-21T00:26:22.971Z,0.90
2022-11-21T00:34:47.821Z,0.77
2022-11-21T00:40:21.302Z,0.80
2022-11-21T00:46:17.385Z,0.77
2022-11-21T00:51:53.057Z,0.70
2022-11-21T00:54:41.862Z,0.90
2022-11-21T00:57:29.701Z,0.80
2022-11-21T01:03:08.138Z,0.97
2022-11-21T01:08:45.695Z,0.67
2022-11-21T01:14:22.868Z,0.80
2022-11-21T01:19:58.164Z,0.67
2022-11-21T01:25:36.795Z,0.70
2022-11-21T01:34:04.664Z,0.93
2022-11-21T01:39:42.893Z,0.80
2022-11-21T01:45:56.942Z,0.73
2022-11-21T01:48:50.184Z,0.70
2022-11-21T01:51:41.768Z,0.60
2022-11-21T01:57:18.293Z,0.63
2022-11-21T02:00:10.104Z,0.67
2022-11-21T02:08:29.876Z,0.87
2022-11-21T02:14:07.026Z,0.60
2022-11-21T02:19:46.845Z,0.70
2022-11-21T02:22:39.476Z,0.73
2022-11-21T02:28:17.209Z,0.73
2022-11-21T02:31:05.437Z,0.60
2022-11-21T02:33:53.831Z,0.60
2022-11-21T02:39:31.248Z,0.70
2022-11-21T02:45:07.597Z,0.53
2022-11-21T02:50:51.391Z,0.60
2022-11-21T02:53:39.918Z,0.80
2022-11-21T02:56:30.083Z,0.80
2022-11-21T03:02:01.013Z,0.70
2022-11-21T03:07:39.138Z,0.80
2022-11-21T03:10:27.662Z,0.67
2022-11-21T03:16:28.093Z,0.60
2022-11-21T03:19:18.990Z,0.70
2022-11-21T03:22:07.565Z,0.83
2022-11-21T03:27:43.157Z,0.77
2022-11-21T03:33:15.859Z,0.80
2022-11-21T03:38:54.097Z,0.77
2022-11-21T03:44:30.124Z,0.77
2022-11-21T03:50:00.277Z,0.70
2022-11-21T03:52:48.512Z,0.60
2022-11-21T03:58:23.578Z,0.83
2022-11-21T04:03:54.390Z,1.00
2022-11-21T04:09:30.815Z,0.93
2022-11-21T04:12:18.879Z,0.80
2022-11-21T04:15:13.449Z,1.00
2022-11-21T04:17:58.088Z,0.90
2022-11-21T04:20:47.244Z,0.93
2022-11-21T04:26:22.945Z,1.10
2022-11-21T04:31:59.335Z,1.00
2022-11-21T04:34:49.254Z,1.00
2022-11-21T04:37:37.628Z,0.90
2022-11-21T04:43:36.278Z,0.90
2022-11-21T04:49:13.168Z,1.10
2022-11-21T04:54:49.393Z,0.90
2022-11-21T04:57:37.944Z,0.80
2022-11-21T05:00:25.967Z,1.00
2022-11-21T05:05:57.828Z,1.20
2022-11-21T05:11:52.388Z,0.83
2022-11-21T05:14:40.702Z,1.00
2022-11-21T05:20:14.831Z,1.00
2022-11-21T05:23:02.858Z,0.67
2022-11-21T05:28:39.637Z,0.80
2022-11-21T05:34:23.013Z,0.80
2022-11-21T05:40:02.204Z,1.20
2022-11-21T05:45:54.197Z,1.10
2022-11-21T05:51:28.700Z,0.97
2022-11-21T05:54:17.704Z,0.87
2022-11-21T05:59:52.751Z,0.87
2022-11-21T06:02:58.438Z,0.80
2022-11-21T06:05:47.233Z,0.90
2022-11-21T06:08:37.631Z,0.90
2022-11-21T06:11:31.448Z,0.97
2022-11-21T06:14:19.603Z,0.87
2022-11-21T06:19:56.967Z,1.10
2022-11-21T06:25:31.281Z,0.80
2022-11-21T06:31:00.708Z,1.10
2022-11-21T06:33:50.703Z,0.97
2022-11-21T06:39:27.104Z,0.90
2022-11-21T06:44:59.698Z,0.87
2022-11-21T06:50:31.283Z,0.97
2022-11-21T06:56:04.574Z,0.80
2022-11-21T06:58:52.744Z,1.00
2022-11-21T07:04:26.676Z,1.43
2022-11-21T07:10:01.180Z,1.20
2022-11-21T07:15:31.655Z,0.97
2022-11-21T07:21:03.124Z,0.97
2022-11-21T07:23:51.828Z,1.03
2022-11-21T07:29:27.636Z,1.07
2022-11-21T07:32:17.832Z,0.90
2022-11-21T07:37:53.078Z,0.70
2022-11-21T07:43:22.723Z,0.90
2022-11-21T07:46:11.164Z,1.10
2022-11-21T07:54:25.555Z,0.80
2022-11-21T08:02:49.271Z,1.00
2022-11-21T08:08:23.427Z,1.40
2022-11-21T08:11:11.977Z,1.00
2022-11-21T08:16:42.196Z,0.87
2022-11-21T08:22:15.226Z,0.93
2022-11-21T08:27:45.109Z,0.90
2022-11-21T08:33:20.621Z,0.90
2022-11-21T08:38:56.353Z,0.90
2022-11-21T08:44:27.048Z,1.00
2022-11-21T08:47:16.912Z,1.03
2022-11-21T08:52:54.577Z,0.90
2022-11-21T08:55:45.368Z,0.80
2022-11-21T09:01:27.710Z,1.00
2022-11-21T09:07:04.247Z,1.37
2022-11-21T09:12:38.078Z,0.87
2022-11-21T09:18:08.486Z,0.77
2022-11-21T09:23:41.588Z,0.90
2022-11-21T09:29:17.759Z,1.07
2022-11-21T09:34:56.392Z,1.00
2022-11-21T09:40:33.184Z,0.93
2022-11-21T09:49:13.517Z,0.80
2022-11-21T09:54:50.804Z,0.80
2022-11-21T10:00:22.622Z,0.90
2022-11-21T10:03:16.592Z,0.87
2022-11-21T10:08:48.073Z,0.77
2022-11-21T10:14:24.790Z,0.80
2022-11-21T10:23:25.605Z,1.13
2022-11-21T10:29:21.629Z,0.97
2022-11-21T10:35:17.556Z,0.80
2022-11-21T10:41:00.132Z,1.00
2022-11-21T10:47:00.515Z,0.83
2022-11-21T10:49:49.224Z,1.00
2022-11-21T10:55:22.576Z,0.70
2022-11-21T10:58:20.137Z,0.90
2022-11-21T11:01:35.772Z,0.50
2022-11-21T11:04:28.150Z,0.77
2022-11-21T11:13:45.185Z,0.70
2022-11-21T11:19:04.404Z,0.73
2022-11-21T11:24:33.620Z,0.80
2022-11-21T11:30:11.556Z,0.80
2022-11-21T11:35:47.238Z,0.77
2022-11-21T11:38:36.186Z,0.80
2022-11-21T11:42:16.995Z,0.73
2022-11-21T11:47:59.806Z,0.90
2022-11-21T11:50:50.328Z,0.67
2022-11-21T11:59:23.957Z,0.93
2022-11-21T12:05:05.874Z,0.90
2022-11-21T12:11:08.844Z,0.60
2022-11-21T12:13:58.355Z,0.80
2022-11-21T12:19:35.163Z,0.70
2022-11-21T12:25:28.235Z,0.67
2022-11-21T12:31:12.647Z,0.70
2022-11-21T12:40:11.996Z,0.90
2022-11-21T12:48:58.309Z,0.70
2022-11-21T12:52:16.429Z,0.70
2022-11-21T12:58:13.747Z,0.90
2022-11-21T13:04:02.711Z,0.97
2022-11-21T13:09:42.978Z,0.80
2022-11-21T13:15:21.576Z,1.10
2022-11-21T13:21:05.743Z,0.70
2022-11-21T13:26:54.084Z,0.80
2022-11-21T13:32:46.578Z,0.93
2022-11-21T13:42:34.120Z,0.93
2022-11-21T13:45:43.935Z,0.80
2022-11-21T13:51:31.692Z,1.00
2022-11-21T13:57:55.159Z,0.97
2022-11-21T14:03:40.238Z,1.70
2022-11-21T14:12:32.858Z,1.00
2022-11-21T14:23:59.022Z,1.30
2022-11-21T14:26:50.288Z,0.90
2022-11-21T14:29:42.184Z,0.93
2022-11-21T14:32:32.194Z,0.80
2022-11-21T14:38:09.928Z,0.90
2022-11-21T14:44:21.051Z,0.80
2022-11-21T14:50:06.906Z,0.90
2022-11-21T14:52:54.113Z,0.80
2022-11-21T14:58:27.691Z,0.90
2022-11-21T15:01:26.467Z,0.60
2022-11-21T15:07:05.218Z,0.73
2022-11-21T15:12:45.779Z,0.80
2022-11-21T15:39:24.652Z,1.10
2022-11-21T15:51:43.909Z,1.13
2022-11-21T15:56:59.287Z,1.07
2022-11-21T15:57:15.400Z,0.97
2022-11-21T15:59:48.000Z,1.20
2022-11-21T16:05:25.740Z,1.30
2022-11-21T16:10:58.871Z,1.03
2022-11-21T16:16:43.229Z,1.03
2022-11-21T16:22:16.914Z,1.10
2022-11-21T16:27:54.038Z,1.50
2022-11-21T16:33:34.767Z,1.30
2022-11-21T16:39:29.670Z,1.20
2022-11-21T16:44:44.456Z,2.60
2022-11-21T16:50:17.556Z,2.50
2022-11-21T16:56:02.605Z,2.23
2022-11-21T16:58:51.106Z,2.00
2022-11-21T17:04:27.640Z,1.57
2022-11-21T17:07:16.824Z,2.03
2022-11-21T17:12:53.243Z,2.07
2022-11-21T17:15:41.475Z,1.50
2022-11-21T17:18:36.406Z,1.57
2022-11-21T17:24:08.317Z,1.40
2022-11-21T17:26:58.051Z,1.90
2022-11-21T17:32:29.505Z,1.73
2022-11-21T17:35:17.998Z,1.70
2022-11-21T17:40:48.482Z,1.27
2022-11-21T17:46:25.938Z,1.90
2022-11-21T17:49:15.031Z,1.90
2022-11-21T17:54:51.502Z,2.37
2022-11-21T18:00:33.547Z,1.80
2022-11-21T18:06:03.388Z,1.97
2022-11-21T18:08:52.485Z,1.70
2022-11-21T18:14:24.125Z,1.90
2022-11-21T18:19:52.087Z,1.83
2022-11-21T18:22:40.903Z,1.67
2022-11-21T18:25:29.991Z,1.90
2022-11-21T18:31:08.612Z,1.90
2022-11-21T18:33:58.207Z,1.73
2022-11-21T18:39:31.783Z,3.70
2022-11-21T18:45:02.508Z,2.67
2022-11-21T18:50:38.656Z,1.77
2022-11-21T18:56:17.377Z,1.70
2022-11-21T18:59:06.988Z,1.80
2022-11-21T19:01:55.674Z,2.23
2022-11-21T19:10:41.831Z,2.20
2022-11-21T19:15:52.905Z,2.20
2022-11-21T19:21:30.088Z,2.60
2022-11-21T19:24:19.472Z,2.60
2022-11-21T19:32:45.736Z,1.80
2022-11-21T19:41:19.832Z,1.40
2022-11-21T19:44:09.183Z,1.17
2022-11-21T19:49:46.661Z,1.20
2022-11-21T19:52:34.981Z,1.33
2022-11-21T19:58:08.810Z,1.33
2022-11-21T20:03:55.504Z,1.60
2022-11-21T20:09:30.573Z,1.47
2022-11-21T20:12:16.631Z,1.73
2022-11-21T20:17:52.121Z,1.70
2022-11-21T20:23:25.685Z,1.90
2022-11-21T20:31:42.163Z,1.90
2022-11-21T20:37:19.485Z,2.50
2022-11-21T20:42:53.964Z,2.37
2022-11-21T20:48:25.108Z,2.80
2022-11-21T20:56:45.387Z,2.00
2022-11-21T21:02:19.388Z,1.80
2022-11-21T21:08:02.375Z,2.50
2022-11-21T21:29:41.158Z,2.40
2022-11-21T21:35:19.716Z,2.53
2022-11-21T21:44:06.946Z,2.70
2022-11-21T22:03:15.309Z,3.40
2022-11-21T22:06:07.063Z,3.27
2022-11-21T22:08:56.508Z,3.17
2022-11-21T22:11:46.971Z,3.03
2022-11-21T22:14:37.334Z,3.50
2022-11-21T22:20:19.377Z,3.33
2022-11-21T22:25:56.413Z,3.23
2022-11-21T22:28:47.072Z,3.20
2022-11-21T22:34:24.811Z,3.10
2022-11-21T22:39:57.652Z,3.50
2022-11-21T22:45:36.015Z,3.13
2022-11-21T22:48:24.604Z,3.37
2022-11-21T22:54:02.333Z,3.60
2022-11-21T22:56:51.284Z,3.30
2022-11-21T22:59:39.648Z,3.23
2022-11-21T23:05:16.936Z,2.80
2022-11-21T23:10:49.201Z,2.80
2022-11-21T23:13:37.891Z,3.30
2022-11-21T23:21:47.622Z,3.20
2022-11-21T23:24:35.958Z,2.90
2022-11-21T23:30:13.002Z,3.00
2022-11-21T23:35:54.610Z,3.50
2022-11-21T23:38:42.935Z,2.87
2022-11-21T23:41:34.829Z,3.40
2022-11-21T23:47:05.754Z,2.50
2022-11-21T23:52:36.672Z,2.70
2022-11-21T23:58:11.690Z,3.10
